Search for airport 
image banner adimage banner adimage banner ad
image banner ad

CA09 - Round Mountain

Located in Klamath River, United States

ICAO - CA09, IATA -

Data provided by Airmate  

General information

Coordinates: N41°53'10" W122°50'40"
Elevation is 3500 feet MSL.
Magnetic variation is 18° East
View others Airports in California

Operational data

Special qualification required
Current time UTC:
Current local time:
Weather at : KSIY - Siskiyou County ( 33 km )
METAR: KSIY 141053Z AUTO 04005KT 10SM BKN070 OVC090 16/11 A2995 RMK AO2 SLP129 T01560111
View NOTAMs / SUP AIP / TFR affecting this airport [VIEW]
Communications frequencies: [VIEW]

Runways:

RWY identifierQFULength (ft)Width (ft)SurfaceLDA (ft)
03150050EARTH
21150050EARTH

Airport contact information

Address: Klamath River United States

Satellite view of CA09